createdAt,value
2023-05-20T03:28:30.793Z,100481.13
2023-05-20T03:30:58.232Z,100496.13
2023-05-20T03:33:26.397Z,100505.84
2023-05-20T03:35:53.868Z,100508.50
2023-05-20T03:38:21.451Z,100521.75
2023-05-20T03:40:48.911Z,100528.84
2023-05-20T03:43:16.385Z,100540.34
2023-05-20T03:45:43.743Z,100540.34
2023-05-20T03:48:56.050Z,100544.84
2023-05-20T03:51:23.479Z,100541.31
2023-05-20T03:53:50.923Z,100537.78
2023-05-20T03:56:18.398Z,100544.00
2023-05-20T03:58:45.784Z,100540.47
2023-05-20T04:01:14.356Z,100549.28
2023-05-20T04:03:44.888Z,100544.88
2023-05-20T04:06:13.788Z,100545.78
2023-05-20T04:08:41.247Z,100552.00
2023-05-20T04:11:08.977Z,100557.31
2023-05-20T04:13:36.394Z,100559.97
2023-05-20T04:16:05.433Z,100562.63
2023-05-20T04:18:32.881Z,100569.75
2023-05-20T04:21:01.790Z,100582.13
2023-05-20T04:23:29.519Z,100575.94
2023-05-20T04:26:02.281Z,100578.59
2023-05-20T04:28:31.669Z,100583.03
2023-05-20T04:31:00.598Z,100581.28
2023-05-20T04:33:28.376Z,100591.00
2023-05-20T04:35:58.852Z,100588.38
2023-05-20T04:38:30.170Z,100598.09
2023-05-20T04:41:01.667Z,100599.88
2023-05-20T04:43:33.878Z,100609.63
2023-05-20T04:46:06.209Z,100606.09
2023-05-20T04:48:34.015Z,100607.00
2023-05-20T04:51:01.567Z,100607.00
2023-05-20T04:53:30.732Z,100601.72
2023-05-20T04:56:00.749Z,100603.50
2023-05-20T04:58:29.713Z,100608.81
2023-05-20T05:00:58.941Z,100612.38
2023-05-20T05:03:27.808Z,100608.84
2023-05-20T05:05:58.955Z,100620.38
2023-05-20T05:08:26.953Z,100607.13
2023-05-20T05:10:54.493Z,100617.72
2023-05-20T05:13:21.906Z,100608.91
2023-05-20T05:15:49.422Z,100614.22
2023-05-20T05:18:19.534Z,100607.16
2023-05-20T05:20:46.958Z,100605.38
2023-05-20T05:23:14.404Z,100600.97
2023-05-20T05:25:41.956Z,100591.25
2023-05-20T05:28:09.409Z,100601.84
2023-05-20T05:30:37.693Z,100589.47
2023-05-20T05:33:05.280Z,100592.16
2023-05-20T05:35:33.432Z,100585.09
2023-05-20T05:38:01.216Z,100584.22
2023-05-20T05:40:28.802Z,100593.94
2023-05-20T05:42:56.264Z,100590.41
2023-05-20T05:45:23.764Z,100601.06
2023-05-20T05:47:51.314Z,100601.97
2023-05-20T05:50:18.832Z,100592.22
2023-05-20T05:52:46.796Z,100580.72
2023-05-20T05:55:14.252Z,100586.91
2023-05-20T05:57:41.728Z,100591.34
2023-05-20T06:00:09.730Z,100590.44
2023-05-20T06:02:37.327Z,100599.31
2023-05-20T06:05:05.331Z,100590.44
2023-05-20T06:07:32.890Z,100587.78
2023-05-20T06:10:00.376Z,100591.31
2023-05-20T06:12:27.894Z,100597.53
2023-05-20T06:14:55.467Z,100593.09
2023-05-20T06:17:23.005Z,100585.13
2023-05-20T06:19:50.512Z,100573.56
2023-05-20T06:22:17.970Z,100587.72
2023-05-20T06:24:45.379Z,100572.63
2023-05-20T06:27:13.024Z,100589.44
2023-05-20T06:29:42.407Z,100566.41
2023-05-20T06:32:11.181Z,100565.50
2023-05-20T06:34:39.092Z,100562.81
2023-05-20T06:37:06.572Z,100570.81
2023-05-20T06:39:34.105Z,100566.31
2023-05-20T06:42:01.622Z,100578.66
2023-05-20T06:44:29.647Z,100556.50
2023-05-20T06:47:01.007Z,100552.97
2023-05-20T06:49:28.871Z,100541.44
2023-05-20T06:51:56.351Z,100544.03
2023-05-20T06:54:23.760Z,100533.41
2023-05-20T06:56:51.313Z,100535.09
2023-05-20T06:59:18.774Z,100525.28
2023-05-20T07:01:46.387Z,100537.66
2023-05-20T07:04:13.890Z,100532.31
2023-05-20T07:06:41.717Z,100538.34
2023-05-20T07:09:09.143Z,100516.16
2023-05-20T07:11:36.583Z,100505.53
2023-05-20T07:14:04.264Z,100496.66
2023-05-20T07:16:32.657Z,100507.09
2023-05-20T07:19:00.240Z,100491.19
2023-05-20T07:21:27.555Z,100490.06
2023-05-20T07:23:55.020Z,100490.94
2023-05-20T07:26:22.668Z,100482.06
2023-05-20T07:28:49.909Z,100485.50
2023-05-20T07:31:17.437Z,100460.72
2023-05-20T07:33:44.938Z,100457.69
2023-05-20T07:36:12.416Z,100470.47
2023-05-20T07:38:41.300Z,100458.19
2023-05-20T07:41:12.475Z,100432.97
2023-05-20T07:43:39.959Z,100395.69
2023-05-20T07:46:07.451Z,100380.50
2023-05-20T07:48:34.501Z,100386.22
2023-05-20T07:51:02.345Z,100342.47
2023-05-20T07:53:29.862Z,100339.84
2023-05-20T07:55:57.615Z,100335.50
2023-05-20T07:58:25.008Z,100342.84
2023-05-20T08:00:52.072Z,100352.13
2023-05-20T08:03:19.698Z,100328.19
2023-05-20T08:05:47.225Z,100286.09
2023-05-20T08:08:14.678Z,100290.47
2023-05-20T08:10:42.352Z,100278.94
2023-05-20T08:13:09.826Z,100234.41
2023-05-20T08:15:37.502Z,100229.94
2023-05-20T08:18:05.079Z,100238.31
2023-05-20T08:20:32.646Z,100270.13
2023-05-20T08:23:00.132Z,100237.59
2023-05-20T08:25:27.324Z,100226.06
2023-05-20T08:27:54.770Z,100193.59
2023-05-20T08:30:22.322Z,100176.94
2023-05-20T08:32:49.923Z,100156.44
2023-05-20T08:35:17.509Z,100198.75
2023-05-20T08:37:45.274Z,100147.22
2023-05-20T08:40:13.905Z,100157.81
2023-05-20T08:42:45.096Z,100199.25
2023-05-20T08:45:13.707Z,100173.06
2023-05-20T08:47:43.492Z,100131.97
2023-05-20T08:50:12.747Z,100156.47
2023-05-20T08:52:49.184Z,100125.19
2023-05-20T08:55:24.944Z,100111.63
2023-05-20T08:57:54.638Z,100112.50
2023-05-20T09:00:27.355Z,100055.81
2023-05-20T09:02:55.450Z,100037.53
2023-05-20T09:05:23.568Z,100060.00
2023-05-20T09:07:51.176Z,100041.13
2023-05-20T09:10:19.310Z,100013.69
2023-05-20T09:12:46.886Z,99973.28
2023-05-20T09:15:14.360Z,99943.09
2023-05-20T09:17:41.751Z,99914.69
2023-05-20T09:20:11.138Z,99965.97
2023-05-20T09:22:39.931Z,99943.09
2023-05-20T09:25:08.199Z,99951.00
2023-05-20T09:27:36.313Z,99983.94
2023-05-20T09:30:07.780Z,99972.00
2023-05-20T09:32:35.240Z,99946.50
2023-05-20T09:35:04.502Z,99918.81
2023-05-20T09:37:35.181Z,99921.75
2023-05-20T09:40:06.072Z,99849.88
2023-05-20T09:42:46.452Z,99908.66
2023-05-20T09:45:13.971Z,99909.25
2023-05-20T09:47:41.901Z,99841.88
2023-05-20T09:50:10.139Z,99836.44
2023-05-20T09:52:41.597Z,99882.31
2023-05-20T09:55:13.032Z,99861.25
2023-05-20T09:57:40.604Z,99808.88
2023-05-20T10:00:13.712Z,99832.00
2023-05-20T10:02:52.222Z,99862.97
2023-05-20T10:05:39.230Z,99853.63
2023-05-20T10:08:34.160Z,99833.00
2023-05-20T10:11:26.606Z,99796.03
2023-05-20T10:14:26.126Z,99849.50
2023-05-20T10:17:32.931Z,99774.94
2023-05-20T10:20:01.271Z,99768.63
2023-05-20T10:22:30.467Z,99723.13
2023-05-20T10:25:07.948Z,99788.91
2023-05-20T10:28:14.517Z,99751.69
2023-05-20T10:30:52.131Z,99693.53
2023-05-20T10:33:20.177Z,99701.50
2023-05-20T10:35:53.930Z,99664.25
2023-05-20T10:38:22.178Z,99727.63
2023-05-20T10:40:49.829Z,99664.06
2023-05-20T10:43:26.692Z,99697.72
2023-05-20T10:45:58.348Z,99685.50
2023-05-20T10:48:45.383Z,99694.72
2023-05-20T10:51:14.960Z,99638.34
2023-05-20T10:53:47.089Z,99668.66
2023-05-20T10:56:23.611Z,99618.06
2023-05-20T10:59:02.902Z,99577.94
2023-05-20T11:01:30.383Z,99521.84
2023-05-20T11:03:58.523Z,99518.69
2023-05-20T11:06:29.606Z,99499.38
2023-05-20T11:09:03.476Z,99509.94
2023-05-20T11:11:31.439Z,99527.34
2023-05-20T11:14:00.486Z,99530.59
2023-05-20T11:16:27.771Z,99531.88
2023-05-20T11:18:55.517Z,99390.66
2023-05-20T11:21:23.007Z,99461.31
2023-05-20T11:23:52.595Z,99418.03
2023-05-20T11:26:21.515Z,99421.94
2023-05-20T11:28:48.997Z,99459.91
2023-05-20T11:31:16.617Z,99464.19
2023-05-20T11:33:44.509Z,99474.63
2023-05-20T11:36:26.802Z,99452.28
2023-05-20T11:38:58.810Z,99466.09
2023-05-20T11:41:27.700Z,99423.00
2023-05-20T11:44:01.407Z,99341.13
2023-05-20T11:46:29.396Z,99371.88
2023-05-20T11:48:57.707Z,99345.38
2023-05-20T11:51:27.835Z,99374.59
2023-05-20T11:54:04.342Z,99316.91
2023-05-20T11:56:34.293Z,99298.09
2023-05-20T11:59:02.110Z,99310.97
2023-05-20T12:01:34.255Z,99302.22
2023-05-20T12:04:02.049Z,99275.66
2023-05-20T12:06:29.742Z,99282.38
2023-05-20T12:08:57.207Z,99288.16
2023-05-20T12:11:24.675Z,99279.47
2023-05-20T12:13:52.270Z,99279.50
2023-05-20T12:16:19.708Z,99327.78
2023-05-20T12:18:47.292Z,99327.09
2023-05-20T12:21:14.778Z,99328.66
2023-05-20T12:23:42.241Z,99309.38
2023-05-20T12:26:09.706Z,99307.38
2023-05-20T12:28:37.285Z,99308.94
2023-05-20T12:31:04.884Z,99285.31
2023-05-20T12:33:32.581Z,99254.13
2023-05-20T12:36:00.272Z,99277.28
2023-05-20T12:38:28.214Z,99234.31
2023-05-20T12:40:55.905Z,99224.56
2023-05-20T12:43:23.444Z,99165.34
2023-05-20T12:45:52.338Z,99183.31
2023-05-20T12:48:19.779Z,99202.31
2023-05-20T12:50:47.243Z,99191.69
2023-05-20T12:53:14.801Z,99233.66
2023-05-20T12:55:42.321Z,99196.59
2023-05-20T12:58:09.967Z,99244.22
2023-05-20T13:00:37.667Z,99227.59
2023-05-20T13:03:05.432Z,99261.13
2023-05-20T13:05:33.282Z,99218.59
2023-05-20T13:08:00.712Z,99179.63
2023-05-20T13:10:28.252Z,99096.16
2023-05-20T13:12:56.267Z,99099.03
2023-05-20T13:15:24.342Z,99071.56
2023-05-20T13:17:51.809Z,99023.84
2023-05-20T13:20:20.088Z,99083.53
2023-05-20T13:22:48.109Z,99058.66
2023-05-20T13:25:15.715Z,99070.78
2023-05-20T13:27:43.177Z,99076.56
2023-05-20T13:30:11.019Z,99048.19
2023-05-20T13:32:38.492Z,99081.56
2023-05-20T13:35:06.468Z,99092.16
2023-05-20T13:37:33.954Z,99090.28
2023-05-20T13:40:01.578Z,99081.22
2023-05-20T13:42:29.080Z,99153.56
2023-05-20T13:44:56.504Z,99216.25
2023-05-20T13:47:24.196Z,99080.16
2023-05-20T13:49:51.725Z,98989.00
2023-05-20T13:52:19.196Z,98964.75
2023-05-20T13:54:48.716Z,98929.78
2023-05-20T13:57:16.450Z,98914.97
2023-05-20T13:59:44.105Z,98970.44
2023-05-20T14:02:11.932Z,98935.19
2023-05-20T14:04:40.272Z,98997.31
2023-05-20T14:07:09.790Z,98937.56
2023-05-20T14:09:37.578Z,98858.84
2023-05-20T14:12:06.460Z,98814.34
2023-05-20T14:14:34.057Z,98804.63
2023-05-20T14:17:01.614Z,98847.81
2023-05-20T14:19:32.322Z,98918.03
2023-05-20T14:22:01.320Z,98854.75
2023-05-20T14:24:28.975Z,98815.31
2023-05-20T14:26:56.453Z,98833.13
2023-05-20T14:29:24.011Z,98809.16
2023-05-20T14:31:51.505Z,98852.69
2023-05-20T14:34:19.094Z,98653.50
2023-05-20T14:36:46.582Z,98678.19
2023-05-20T14:39:14.035Z,98757.91
2023-05-20T14:41:41.593Z,98695.94
2023-05-20T14:44:09.044Z,98712.00
2023-05-20T14:46:36.692Z,98695.38
2023-05-20T14:49:04.217Z,98745.16
2023-05-20T14:51:31.655Z,98775.03
2023-05-20T14:53:59.158Z,98781.97
2023-05-20T14:56:26.989Z,98725.28
2023-05-20T14:58:54.565Z,98736.19
2023-05-20T15:01:22.290Z,98773.19
2023-05-20T15:03:49.840Z,98752.81
2023-05-20T15:06:17.396Z,98725.34
2023-05-20T15:08:44.842Z,98760.47
2023-05-20T15:11:12.417Z,98775.06
2023-05-20T15:13:40.677Z,98727.09
2023-05-20T15:16:08.761Z,98730.63
2023-05-20T15:18:36.316Z,98752.19
2023-05-20T15:21:04.145Z,98812.09
2023-05-20T15:23:31.703Z,98849.44
2023-05-20T15:25:59.159Z,98779.72
2023-05-20T15:28:26.657Z,98772.09
2023-05-20T15:30:56.852Z,98740.22
2023-05-20T15:33:24.765Z,98858.09
2023-05-20T15:35:52.465Z,98801.75
2023-05-20T15:38:20.042Z,98850.81
2023-05-20T15:40:50.316Z,98867.22
2023-05-20T15:43:18.666Z,98902.34
2023-05-20T15:45:48.394Z,98864.00
2023-05-20T15:48:16.556Z,98883.19
2023-05-20T15:50:44.265Z,98892.81
2023-05-20T15:53:11.819Z,98866.66
2023-05-20T15:55:39.252Z,98881.84
2023-05-20T15:58:06.688Z,98916.38
2023-05-20T16:00:34.540Z,98947.34
2023-05-20T16:03:02.269Z,98936.00
2023-05-20T16:05:30.006Z,98933.97
2023-05-20T16:07:57.455Z,98963.09
2023-05-20T16:10:32.502Z,98965.38
2023-05-20T16:13:00.688Z,98958.38
2023-05-20T16:15:31.745Z,99000.53
2023-05-20T16:17:59.237Z,98971.28
2023-05-20T16:20:26.821Z,99078.31
2023-05-20T16:22:54.379Z,99085.69
2023-05-20T16:25:21.921Z,99085.50
2023-05-20T16:27:49.338Z,99102.00
2023-05-20T16:30:17.076Z,99093.66
2023-05-20T16:32:50.061Z,99103.78
2023-05-20T16:35:17.664Z,99139.81
2023-05-20T16:37:45.417Z,99148.91
2023-05-20T16:40:15.310Z,99229.56
2023-05-20T16:42:44.244Z,99213.75
2023-05-20T16:45:11.930Z,99217.84
2023-05-20T16:47:39.467Z,99177.06
2023-05-20T16:50:07.546Z,99187.13
2023-05-20T16:52:35.335Z,99269.31
2023-05-20T16:55:04.601Z,99202.63
2023-05-20T16:57:32.715Z,99212.03
2023-05-20T17:00:00.248Z,99209.09
2023-05-20T17:02:27.869Z,99182.59
2023-05-20T17:04:55.465Z,99176.28
2023-05-20T17:07:22.799Z,99185.47
2023-05-20T17:09:50.211Z,99172.94
2023-05-20T17:12:17.838Z,99203.63
2023-05-20T17:14:45.259Z,99217.34
2023-05-20T17:17:14.912Z,99246.19
2023-05-20T17:19:42.612Z,99208.13
2023-05-20T17:22:10.036Z,99179.03
2023-05-20T17:24:37.401Z,99206.72
2023-05-20T17:27:06.241Z,99186.34
2023-05-20T17:29:33.674Z,99214.78
2023-05-20T17:32:01.476Z,99223.00
2023-05-20T17:34:29.989Z,99221.44
2023-05-20T17:36:57.639Z,99222.81
2023-05-20T17:39:25.032Z,99197.31
2023-05-20T17:41:52.415Z,99219.44
2023-05-20T17:44:19.790Z,99213.16
2023-05-20T17:46:48.705Z,99236.94
2023-05-20T17:49:16.916Z,99238.19
2023-05-20T17:51:46.131Z,99258.56
2023-05-20T17:54:13.951Z,99259.78
2023-05-20T17:56:43.412Z,99277.84
2023-05-20T17:59:10.901Z,99302.56
2023-05-20T18:01:37.988Z,99290.13
2023-05-20T18:04:08.767Z,99324.50
2023-05-20T18:06:36.769Z,99322.84
2023-05-20T18:09:06.111Z,99341.78
2023-05-20T18:11:34.168Z,99352.56
2023-05-20T18:14:03.296Z,99358.56
2023-05-20T18:16:31.255Z,99382.59
2023-05-20T18:18:58.910Z,99387.34
2023-05-20T18:21:26.628Z,99393.47
2023-05-20T18:23:54.177Z,99427.59
2023-05-20T18:26:21.782Z,99416.94
2023-05-20T18:28:50.203Z,99436.47
2023-05-20T18:31:17.818Z,99437.34
2023-05-20T18:33:45.357Z,99442.31
2023-05-20T18:36:12.882Z,99452.94
2023-05-20T18:38:41.678Z,99460.22
2023-05-20T18:41:09.448Z,99461.72
2023-05-20T18:43:36.923Z,99487.59
2023-05-20T18:46:04.574Z,99496.81
2023-05-20T18:48:32.033Z,99507.06
2023-05-20T18:50:59.468Z,99512.66
2023-05-20T18:53:26.979Z,99526.13
2023-05-20T18:55:56.071Z,99529.34
2023-05-20T18:58:26.247Z,99548.88
2023-05-20T19:00:53.717Z,99553.78
2023-05-20T19:03:21.477Z,99562.97
2023-05-20T19:05:49.096Z,99579.91
2023-05-20T19:08:16.839Z,99590.69
2023-05-20T19:10:44.455Z,99591.91
2023-05-20T19:13:11.894Z,99605.44
2023-05-20T19:15:39.327Z,99612.88
2023-05-20T19:18:07.213Z,99608.47
2023-05-20T19:20:34.899Z,99624.66
2023-05-20T19:23:03.037Z,99644.19
2023-05-20T19:25:30.565Z,99652.53
2023-05-20T19:27:57.999Z,99664.22
2023-05-20T19:30:25.765Z,99677.00
2023-05-20T19:32:55.860Z,99688.47
2023-05-20T19:35:23.678Z,99694.19
2023-05-20T19:37:53.074Z,99719.44
2023-05-20T19:40:21.106Z,99724.06
2023-05-20T19:42:50.116Z,99736.63
2023-05-20T19:45:18.933Z,99742.13
2023-05-20T19:47:46.490Z,99757.25
2023-05-20T19:50:13.500Z,99762.91
2023-05-20T19:52:41.058Z,99773.66
2023-05-20T19:55:08.978Z,99785.47
2023-05-20T19:57:36.499Z,99797.19
2023-05-20T20:00:06.115Z,99806.25
2023-05-20T20:02:33.702Z,99821.41
2023-05-20T20:05:01.256Z,99835.81
2023-05-20T20:07:28.775Z,99837.75
2023-05-20T20:09:56.569Z,99845.78
2023-05-20T20:12:24.950Z,99852.28
2023-05-20T20:14:52.820Z,99865.69
2023-05-20T20:17:22.112Z,99885.50
2023-05-20T20:19:53.111Z,99891.66
2023-05-20T20:22:20.890Z,99903.38
2023-05-20T20:24:49.905Z,99914.91
2023-05-20T20:27:19.292Z,99925.81
2023-05-20T20:29:46.812Z,99925.94
2023-05-20T20:32:14.245Z,99944.78
2023-05-20T20:34:42.051Z,99944.94
2023-05-20T20:37:09.888Z,99952.94
2023-05-20T20:39:37.385Z,99954.88
2023-05-20T20:42:04.959Z,99962.06
2023-05-20T20:44:32.585Z,99975.38
2023-05-20T20:47:00.006Z,99978.22
2023-05-20T20:49:28.564Z,99988.16
2023-05-20T20:51:56.347Z,99992.69
2023-05-20T20:54:23.745Z,100005.09
2023-05-20T20:56:51.888Z,100007.91
2023-05-20T20:59:22.040Z,100015.16
2023-05-20T21:01:49.499Z,100021.50
2023-05-20T21:04:17.435Z,100027.78
2023-05-20T21:06:47.857Z,100041.19
2023-05-20T21:09:15.589Z,100039.47
2023-05-20T21:11:43.328Z,100051.97
2023-05-20T21:14:11.063Z,100061.81
2023-05-20T21:16:39.090Z,100072.56
2023-05-20T21:19:06.591Z,100073.41
2023-05-20T21:21:34.032Z,100075.25
2023-05-20T21:24:01.422Z,100081.50
2023-05-20T21:26:28.417Z,100085.09
2023-05-20T21:28:55.904Z,100089.56
2023-05-20T21:31:23.307Z,100094.94
2023-05-20T21:33:50.882Z,100100.31
2023-05-20T21:36:18.317Z,100092.28
2023-05-20T21:38:45.892Z,100082.72
2023-05-20T21:41:14.858Z,100087.19
2023-05-20T21:43:43.918Z,100093.38
2023-05-20T21:46:11.745Z,100095.13
2023-05-20T21:48:39.192Z,100099.53
2023-05-20T21:51:06.661Z,100106.81
2023-05-20T21:53:34.045Z,100112.19
2023-05-20T21:56:01.988Z,100109.59
2023-05-20T21:58:29.388Z,100111.41
2023-05-20T22:00:56.881Z,100114.94
2023-05-20T22:03:25.179Z,100123.88
2023-05-20T22:05:52.746Z,100129.22
2023-05-20T22:08:20.173Z,100121.28
2023-05-20T22:10:48.428Z,100130.19
2023-05-20T22:13:15.833Z,100126.69
2023-05-20T22:15:46.222Z,100132.06
2023-05-20T22:18:14.961Z,100128.56
2023-05-20T22:20:42.846Z,100138.34
2023-05-20T22:23:10.468Z,100141.94
2023-05-20T22:25:38.074Z,100140.16
2023-05-20T22:28:05.807Z,100148.22
2023-05-20T22:30:33.224Z,100149.19
2023-05-20T22:33:00.841Z,100143.81
2023-05-20T22:35:28.290Z,100142.09
2023-05-20T22:37:57.373Z,100146.56
2023-05-20T22:40:24.733Z,100148.44
2023-05-20T22:42:52.548Z,100148.38
2023-05-20T22:45:19.963Z,100158.22
2023-05-20T22:47:47.392Z,100157.34
2023-05-20T22:50:14.834Z,100153.88
2023-05-20T22:52:42.618Z,100155.63
2023-05-20T22:55:10.191Z,100159.25
2023-05-20T22:57:37.680Z,100164.63
2023-05-20T23:00:07.913Z,100161.09
2023-05-20T23:02:35.331Z,100160.16
2023-05-20T23:05:04.239Z,100162.03
2023-05-20T23:07:32.128Z,100162.03
2023-05-20T23:09:59.577Z,100158.53
2023-05-20T23:12:27.113Z,100162.94
2023-05-20T23:14:55.161Z,100167.41
2023-05-20T23:17:22.698Z,100162.16
2023-05-20T23:19:50.070Z,100170.06
2023-05-20T23:22:17.550Z,100169.22
2023-05-20T23:24:45.095Z,100171.88
2023-05-20T23:27:12.496Z,100171.88
2023-05-20T23:29:40.456Z,100176.34
2023-05-20T23:32:08.051Z,100179.00
2023-05-20T23:34:35.493Z,100178.19
2023-05-20T23:37:02.832Z,100177.19
2023-05-20T23:39:30.273Z,100179.91
2023-05-20T23:41:57.619Z,100188.84
2023-05-20T23:44:25.054Z,100187.06
2023-05-20T23:46:53.734Z,100195.97
2023-05-20T23:49:24.528Z,100192.44
2023-05-20T23:51:52.907Z,100196.97
2023-05-20T23:54:20.871Z,100199.59
2023-05-20T23:56:48.804Z,100198.69
2023-05-20T23:59:16.352Z,100196.13
